Flight Track Log - Related Links

Times and Time Zones

All times are in EDT time to prevent confusion due to time zone crossing. See the N561EJ flight status page for this flight to view local times or setup timezone preferences in your user account.


Time Position Orientation Groundspeed Altitude Reporting Facility
EDT Latitude Longitude Course Direction KTS MPH feet Rate Location/Type
Wed 08:52:09 PM 32.3647 -90.0622 132° Southeast 205 236 3,700  Level Memphis Center
Wed 08:53:09 PM 32.3289 -89.9983 124° Southeast 187 215 6,100 2,600 Climbing Memphis Center
Wed 08:54:09 PM 32.2767 -89.9397 136° Southeast 211 243 8,900 2,400 Climbing Memphis Center
Wed 08:55:09 PM 32.2200 -89.8711 134° Southeast 252 290 10,900 1,800 Climbing Memphis Center
Wed 08:56:09 PM 32.1550 -89.7931 135° Southeast 299 344 12,500 1,700 Climbing Memphis Center
Wed 08:57:00 PM 31.9971 -89.7131 132° Southeast  Level Estimated
Wed 08:57:09 PM 32.0878 -89.7050 132° Southeast 334 384 14,300  Level Memphis Center
Wed 08:58:09 PM 32.0078 -89.6053 133° Southeast 369 425 15,000 350 Climbing Memphis Center
Wed 08:59:09 PM 31.9383 -89.5178 133° Southeast 375 432 15,000  Level Memphis Center
Wed 09:00:03 PM 31.8711 -89.4381 135° Southeast 371 427 15,000  Level Houston Center
Wed 09:01:05 PM 31.7994 -89.3486 133° Southeast 373 429 15,000 -49 Level Houston Center
Wed 09:02:06 PM 31.7272 -89.2594 134° Southeast 376 433 14,900  Descending Houston Center
Wed 09:03:08 PM 31.6544 -89.1722 134° Southeast 376 433 15,000 49 Climbing Houston Center
Wed 09:04:09 PM 31.5836 -89.0839 133° Southeast 373 429 15,000 -49 Level Houston Center
Wed 09:05:11 PM 31.5108 -88.9944 134° Southeast 377 434 14,900  Descending Houston Center
Wed 09:06:12 PM 31.4394 -88.9067 134° Southeast 374 430 15,000 49 Climbing Houston Center
Wed 09:07:14 PM 31.3669 -88.8186 134° Southeast 376 433 15,000 -683 Level Houston Center
Wed 09:08:15 PM 31.2806 -88.7131 134° Southeast 375 432 13,600 -1,672 Descending Houston Center
Wed 09:09:16 PM 31.2136 -88.6333 134° Southeast 355 409 11,600 -1,902 Descending Houston Center
Wed 09:10:18 PM 31.1386 -88.5817 149° Southeast 321 369 9,700 -1,805 Descending Houston Center
Wed 09:11:19 PM 31.0686 -88.5331 149° Southeast 302 348 7,900 -1,805 Descending Houston Center
Wed 09:12:21 PM 31.0050 -88.4836 146° Southeast 284 327 6,000 -2,000 Descending Houston Center
Wed 09:13:22 PM 30.9414 -88.4392 149° Southeast 274 315 3,800 -1,967 Descending Houston Center
Wed 09:14:23 PM 30.8717 -88.3867 147° Southeast 260 299 2,000 -927 Descending Houston Center
Wed 09:15:25 PM 30.8208 -88.3531 150° Southeast 232 267 1,900 -96 Descending Houston Center
Wed 09:16:28 PM 30.7869 -88.3239 144° Southeast 183 211 1,800 -146 Descending Houston Center
Wed 09:17:28 PM 30.7581 -88.3000 145° Southeast 151 174 1,600 -397 Descending Houston Center
Wed 09:18:29 PM 30.7322 -88.2781 144° Southeast 130 150 1,000 -585 Descending Houston Center
Wed 09:19:31 PM 30.7075 -88.2567 143° Southeast 120 138 400 -581 Descending Houston Center

Login

Don't have an account? Register now (free) for customized features, flight alerts, and more!